Time;durP1;ratioP1;P1;durP2;ratioP2;P2;SDS_P1;SDS_P2;PMS_P1;PMS_P2;Temp;Humidity;BMP_temperature;BMP_pressure;BME280_temperature;BME280_humidity;BME280_pressure;Samples;Min_cycle;Max_cycle;Signal;HPM_P1;HPM_P2
2022/03/24 00:02:06;;;;;;;52.10;36.05;;;5.20;99.90;;;;;;5095311;28;20052;-75
2022/03/24 00:04:32;;;;;;;52.17;37.65;;;5.20;99.90;;;;;;5106973;28;20149;-75
2022/03/24 00:06:58;;;;;;;56.50;38.80;;;5.20;99.90;;;;;;5098604;28;20122;-75
2022/03/24 00:09:24;;;;;;;48.78;37.85;;;5.10;99.90;;;;;;5097236;28;20055;-75
2022/03/24 00:11:50;;;;;;;52.38;38.08;;;5.10;99.90;;;;;;5081314;28;20035;-75
2022/03/24 00:14:18;;;;;;;52.17;38.17;;;5.10;99.90;;;;;;5097626;28;20082;-75
2022/03/24 00:16:44;;;;;;;55.72;40.00;;;5.00;99.90;;;;;;5097177;28;20547;-75
2022/03/24 00:19:10;;;;;;;50.63;36.75;;;5.00;99.90;;;;;;5097918;28;20052;-75
2022/03/24 00:21:36;;;;;;;52.70;36.50;;;5.00;99.90;;;;;;5116331;28;20062;-75
2022/03/24 00:24:02;;;;;;;51.45;37.28;;;5.00;99.90;;;;;;5096898;28;20128;-75
2022/03/24 00:26:28;;;;;;;60.80;38.90;;;4.90;99.90;;;;;;5116080;28;20086;-75
2022/03/24 00:28:53;;;;;;;48.92;36.97;;;4.90;99.90;;;;;;5090634;28;20075;-75
2022/03/24 00:31:19;;;;;;;51.60;36.85;;;4.90;99.90;;;;;;5096931;28;20043;-75
2022/03/24 00:33:45;;;;;;;55.92;36.42;;;4.80;99.90;;;;;;5097576;28;20126;-75
2022/03/24 00:36:14;;;;;;;57.35;36.03;;;4.80;99.90;;;;;;5115831;28;20123;-75
2022/03/24 00:38:40;;;;;;;58.75;36.50;;;4.80;99.90;;;;;;5115168;28;20125;-75
2022/03/24 00:41:07;;;;;;;47.90;35.80;;;4.80;99.90;;;;;;5115801;28;20457;-75
2022/03/24 00:43:33;;;;;;;56.42;38.50;;;4.70;99.90;;;;;;5115199;28;20047;-75
2022/03/24 00:45:59;;;;;;;65.45;39.47;;;4.70;99.90;;;;;;5114732;28;20040;-75
2022/03/24 00:48:26;;;;;;;56.08;37.63;;;4.70;99.90;;;;;;5097015;28;20054;-75
2022/03/24 00:50:52;;;;;;;60.60;40.17;;;4.70;99.90;;;;;;5096886;28;20044;-75
2022/03/24 00:53:18;;;;;;;66.35;39.28;;;4.70;99.90;;;;;;5096491;28;20483;-75
2022/03/24 00:55:44;;;;;;;60.90;37.78;;;4.70;99.90;;;;;;5097221;28;20046;-75
2022/03/24 00:58:10;;;;;;;52.17;36.28;;;4.60;99.90;;;;;;5113288;28;20069;-75
2022/03/24 01:00:37;;;;;;;55.10;36.85;;;4.60;99.90;;;;;;5115273;28;20491;-75
2022/03/24 01:03:06;;;;;;;60.38;41.78;;;4.60;99.90;;;;;;5080257;28;20044;-75
2022/03/24 01:05:37;;;;;;;59.42;42.08;;;4.60;99.90;;;;;;5093027;28;20185;-75
2022/03/24 01:08:08;;;;;;;62.83;40.38;;;4.60;99.90;;;;;;5106178;28;20039;-75
2022/03/24 01:10:34;;;;;;;52.13;38.75;;;4.50;99.90;;;;;;5115372;28;20040;-75
2022/03/24 01:13:00;;;;;;;52.83;36.38;;;4.50;99.90;;;;;;5096307;28;20043;-75
2022/03/24 01:15:27;;;;;;;55.10;35.35;;;4.50;99.90;;;;;;5096903;28;20509;-75
2022/03/24 01:17:53;;;;;;;55.22;37.08;;;4.40;99.90;;;;;;5114639;28;20040;-75
2022/03/24 01:20:21;;;;;;;49.60;36.28;;;4.30;99.90;;;;;;5089280;28;20043;-75
2022/03/24 01:22:47;;;;;;;53.40;37.03;;;4.30;99.90;;;;;;5108243;28;20044;-75
2022/03/24 01:25:14;;;;;;;70.22;41.42;;;4.30;99.90;;;;;;5114810;28;20042;-75
2022/03/24 01:27:39;;;;;;;58.25;38.70;;;4.30;99.90;;;;;;5113786;28;20050;-75
2022/03/24 01:30:09;;;;;;;59.78;40.03;;;4.30;99.90;;;;;;5114906;28;20118;-75
2022/03/24 01:32:35;;;;;;;55.88;37.50;;;4.30;99.90;;;;;;5114487;28;20044;-75
2022/03/24 01:35:03;;;;;;;58.58;38.90;;;4.20;99.90;;;;;;5114219;28;20043;-75
2022/03/24 01:37:30;;;;;;;50.72;35.15;;;4.20;99.90;;;;;;5114336;28;20050;-75
2022/03/24 01:39:56;;;;;;;56.60;40.00;;;4.20;99.90;;;;;;5114907;28;20050;-75
2022/03/24 01:42:21;;;;;;;57.67;40.00;;;4.20;99.90;;;;;;5094959;28;20406;-75
2022/03/24 01:44:48;;;;;;;57.03;39.05;;;4.10;99.90;;;;;;5079831;28;20064;-75
2022/03/24 01:47:15;;;;;;;69.32;40.08;;;4.10;99.90;;;;;;5092085;28;20048;-75
2022/03/24 01:49:49;;;;;;;65.53;43.45;;;4.10;99.90;;;;;;5094113;28;20055;-75
2022/03/24 01:52:18;;;;;;;57.63;40.50;;;4.00;99.90;;;;;;5106609;28;20050;-75
2022/03/24 01:54:47;;;;;;;49.95;34.22;;;4.10;99.90;;;;;;5113689;28;20088;-75
2022/03/24 01:57:15;;;;;;;50.38;36.67;;;4.00;99.90;;;;;;5086333;28;20052;-75
2022/03/24 01:59:41;;;;;;;51.10;35.10;;;4.00;99.90;;;;;;5076042;28;20484;-75
2022/03/24 02:02:09;;;;;;;49.03;33.50;;;3.90;99.90;;;;;;5105378;28;20126;-75
2022/03/24 02:04:36;;;;;;;47.42;34.33;;;3.90;99.90;;;;;;5096060;28;20039;-75
2022/03/24 02:07:06;;;;;;;62.25;42.65;;;3.90;99.90;;;;;;5114186;28;20131;-75
2022/03/24 02:09:36;;;;;;;54.20;35.63;;;3.80;99.90;;;;;;5112976;28;20086;-75
2022/03/24 02:12:06;;;;;;;64.03;42.13;;;3.80;99.90;;;;;;5104055;28;20043;-75
2022/03/24 02:14:32;;;;;;;52.33;36.00;;;3.70;99.90;;;;;;5082210;28;20043;-75
2022/03/24 02:16:58;;;;;;;58.67;37.75;;;3.70;99.90;;;;;;5113454;28;20047;-75
2022/03/24 02:19:26;;;;;;;62.58;42.75;;;3.70;99.90;;;;;;5079037;28;20391;-75
2022/03/24 02:21:53;;;;;;;64.50;43.03;;;3.60;99.90;;;;;;5095824;28;20040;-75
2022/03/24 02:24:21;;;;;;;59.45;37.50;;;3.60;99.90;;;;;;5094652;28;20054;-75
2022/03/24 02:26:48;;;;;;;54.63;39.05;;;3.60;99.90;;;;;;5111938;28;20043;-75
2022/03/24 02:29:16;;;;;;;50.92;36.95;;;3.60;99.90;;;;;;5095114;28;20054;-75
2022/03/24 02:31:47;;;;;;;47.75;34.22;;;3.50;99.90;;;;;;5113120;28;20482;-75
2022/03/24 02:37:01;;;;;;;59.13;39.17;;;3.50;99.90;;;;;;5092702;28;20040;-75
2022/03/24 02:39:28;;;;;;;62.00;41.28;;;3.50;99.90;;;;;;5085485;28;20104;-75
2022/03/24 02:41:58;;;;;;;63.50;42.67;;;3.50;99.90;;;;;;5094843;28;20467;-75
2022/03/24 02:44:26;;;;;;;63.78;42.75;;;3.50;99.90;;;;;;5113042;28;20399;-75
2022/03/24 02:46:53;;;;;;;72.20;46.30;;;3.50;99.90;;;;;;5095568;28;20043;-75
2022/03/24 02:49:25;;;;;;;67.30;45.88;;;3.50;99.90;;;;;;5113363;28;20051;-75
2022/03/24 02:51:53;;;;;;;62.75;42.15;;;3.40;99.90;;;;;;5112689;28;20123;-75
2022/03/24 02:54:22;;;;;;;64.90;44.28;;;3.50;99.90;;;;;;5078351;28;20036;-75
2022/03/24 02:56:49;;;;;;;73.13;48.85;;;3.50;99.90;;;;;;5113352;28;20395;-75
2022/03/24 02:59:16;;;;;;;76.90;49.83;;;3.40;99.90;;;;;;5112654;28;20035;-75
2022/03/24 03:01:50;;;;;;;59.40;41.72;;;3.40;99.90;;;;;;5095630;28;20432;-75
2022/03/24 03:04:16;;;;;;;63.63;43.42;;;3.50;99.90;;;;;;5095412;28;20122;-75
2022/03/24 03:06:42;;;;;;;69.32;44.40;;;3.40;99.90;;;;;;5077809;28;20131;-75
2022/03/24 03:09:07;;;;;;;68.65;46.03;;;3.40;99.90;;;;;;5113553;28;20044;-75
2022/03/24 03:11:34;;;;;;;62.55;42.97;;;3.40;99.90;;;;;;5110982;28;20495;-75
2022/03/24 03:14:00;;;;;;;68.22;45.00;;;3.40;99.90;;;;;;5112988;28;20044;-75
2022/03/24 03:16:27;;;;;;;68.53;45.03;;;3.40;99.90;;;;;;5095196;28;20521;-75
2022/03/24 03:18:55;;;;;;;67.18;46.17;;;3.40;99.90;;;;;;5112426;28;20054;-75
2022/03/24 03:21:22;;;;;;;66.38;44.15;;;3.30;99.90;;;;;;5097660;28;20044;-75
2022/03/24 03:23:48;;;;;;;64.85;41.17;;;3.40;99.90;;;;;;5117444;28;20047;-75
2022/03/24 03:26:16;;;;;;;60.45;43.35;;;3.40;99.90;;;;;;5109457;28;20040;-75
2022/03/24 03:28:42;;;;;;;76.28;49.20;;;3.30;99.90;;;;;;5097016;28;20058;-75
2022/03/24 03:31:08;;;;;;;78.70;50.03;;;3.30;99.90;;;;;;5109414;28;20126;-75
2022/03/24 03:33:36;;;;;;;75.03;48.47;;;3.30;99.90;;;;;;5098408;28;20040;-75
2022/03/24 03:36:03;;;;;;;96.38;57.97;;;3.30;99.90;;;;;;5116862;28;20491;-75
2022/03/24 03:38:30;;;;;;;78.28;49.92;;;3.30;99.90;;;;;;5098842;28;20055;-75
2022/03/24 03:40:56;;;;;;;85.45;54.85;;;3.30;99.90;;;;;;5096993;28;20039;-75
2022/03/24 03:43:23;;;;;;;75.35;47.95;;;3.30;99.90;;;;;;5081873;28;20043;-75
2022/03/24 03:45:49;;;;;;;82.95;52.47;;;3.30;99.90;;;;;;5116570;28;20510;-75
2022/03/24 03:48:15;;;;;;;79.47;48.72;;;3.30;99.90;;;;;;5115848;28;20438;-75
2022/03/24 03:50:41;;;;;;;78.30;49.63;;;3.30;99.90;;;;;;5081489;28;20047;-75
2022/03/24 03:53:08;;;;;;;75.20;48.85;;;3.20;99.90;;;;;;5098733;28;20153;-75
2022/03/24 03:55:35;;;;;;;88.63;54.22;;;3.20;99.90;;;;;;5092455;28;20488;-75
2022/03/24 03:58:02;;;;;;;76.22;51.30;;;3.20;99.90;;;;;;5078326;28;20110;-75
2022/03/24 04:03:12;;;;;;;83.05;52.80;;;3.20;99.90;;;;;;5077697;28;20048;-75
2022/03/24 04:05:38;;;;;;;79.80;48.85;;;3.20;99.90;;;;;;5078387;28;20487;-75
2022/03/24 04:08:04;;;;;;;78.15;51.42;;;3.20;99.90;;;;;;5097141;28;20050;-75
2022/03/24 04:10:32;;;;;;;74.85;46.05;;;3.20;99.90;;;;;;5097744;28;20058;-75
2022/03/24 04:12:58;;;;;;;80.10;48.00;;;3.20;99.90;;;;;;5116496;28;20050;-75
2022/03/24 04:15:24;;;;;;;81.63;50.83;;;3.20;99.90;;;;;;5097352;28;20044;-75
2022/03/24 04:17:53;;;;;;;84.32;50.75;;;3.20;99.90;;;;;;5111603;28;20510;-75
2022/03/24 04:20:23;;;;;;;83.93;52.55;;;3.20;99.90;;;;;;5116329;28;20533;-75
2022/03/24 04:22:53;;;;;;;85.35;50.58;;;3.20;99.90;;;;;;5115309;28;20052;-75
2022/03/24 04:25:20;;;;;;;81.80;51.25;;;3.20;99.90;;;;;;5098176;28;20097;-75
2022/03/24 04:27:47;;;;;;;74.15;48.22;;;3.20;99.90;;;;;;5115654;28;20101;-75
2022/03/24 04:30:13;;;;;;;74.03;47.80;;;3.20;99.90;;;;;;5093321;28;20047;-75
2022/03/24 04:32:39;;;;;;;74.88;47.40;;;3.20;99.90;;;;;;5095592;28;20048;-75
2022/03/24 04:35:11;;;;;;;69.80;46.70;;;3.20;99.90;;;;;;5100770;28;20027;-75
2022/03/24 04:37:38;;;;;;;65.68;43.42;;;3.10;99.90;;;;;;5115064;28;20454;-75
2022/03/24 04:40:05;;;;;;;79.90;51.53;;;3.10;99.90;;;;;;5114967;28;20044;-75
2022/03/24 04:42:32;;;;;;;83.47;52.97;;;3.10;99.90;;;;;;5115777;28;20487;-75
2022/03/24 04:44:58;;;;;;;92.15;51.95;;;3.10;99.90;;;;;;5096585;28;20088;-75
2022/03/24 04:47:24;;;;;;;77.78;48.85;;;3.10;99.90;;;;;;5115801;28;20465;-75
2022/03/24 04:49:50;;;;;;;78.05;47.45;;;3.10;99.90;;;;;;5115334;28;20146;-75
2022/03/24 04:52:16;;;;;;;84.35;51.33;;;3.00;99.90;;;;;;5096754;28;20547;-75
2022/03/24 04:54:42;;;;;;;92.45;56.88;;;3.00;99.90;;;;;;5108318;28;20043;-75
2022/03/24 04:57:08;;;;;;;66.68;43.08;;;3.00;99.90;;;;;;5096148;28;20107;-75
2022/03/24 04:59:34;;;;;;;68.03;44.28;;;3.00;99.90;;;;;;5097114;28;20044;-75
2022/03/24 05:02:00;;;;;;;59.13;40.08;;;3.00;99.90;;;;;;5096925;28;20054;-75
2022/03/24 05:04:26;;;;;;;118.50;57.95;;;2.90;99.90;;;;;;5096262;28;20078;-75
2022/03/24 05:06:52;;;;;;;80.63;46.63;;;2.90;99.90;;;;;;5115577;28;20147;-75
2022/03/24 05:09:17;;;;;;;81.03;46.45;;;2.80;99.90;;;;;;5080071;28;20040;-75
2022/03/24 05:11:44;;;;;;;71.90;41.65;;;2.80;99.90;;;;;;5075877;28;20063;-75
2022/03/24 05:14:10;;;;;;;71.55;42.80;;;2.80;99.90;;;;;;5093876;28;20039;-75
2022/03/24 05:16:37;;;;;;;78.07;47.83;;;2.70;99.90;;;;;;5097087;28;20109;-75
2022/03/24 05:19:03;;;;;;;105.90;61.08;;;2.80;99.90;;;;;;5113947;28;20047;-75
2022/03/24 05:21:31;;;;;;;103.05;60.67;;;2.80;99.90;;;;;;5096972;28;20510;-75
2022/03/24 05:23:57;;;;;;;90.53;54.08;;;2.80;99.90;;;;;;5086845;28;20540;-75
2022/03/24 05:26:24;;;;;;;78.30;47.05;;;2.80;99.90;;;;;;5113991;28;20487;-75
2022/03/24 05:28:53;;;;;;;68.93;43.70;;;2.70;99.90;;;;;;5114081;28;20093;-75
2022/03/24 05:31:20;;;;;;;84.85;52.13;;;2.70;99.90;;;;;;5115116;28;20090;-75
2022/03/24 05:33:47;;;;;;;76.78;45.42;;;2.70;99.90;;;;;;5095461;28;20099;-75
2022/03/24 05:36:13;;;;;;;106.97;58.58;;;2.70;99.90;;;;;;5114980;28;20126;-75
2022/03/24 05:38:39;;;;;;;114.10;61.95;;;2.70;99.90;;;;;;5114619;28;20130;-75
2022/03/24 05:41:05;;;;;;;84.45;51.67;;;2.70;99.90;;;;;;5095741;28;20444;-75
2022/03/24 05:43:32;;;;;;;96.20;53.63;;;2.70;99.90;;;;;;5095190;28;20066;-75
2022/03/24 05:45:58;;;;;;;97.05;57.63;;;2.70;99.90;;;;;;5085193;28;20390;-75
2022/03/24 05:48:24;;;;;;;85.85;52.45;;;2.70;99.90;;;;;;5100015;28;20092;-75
2022/03/24 05:50:50;;;;;;;89.50;53.25;;;2.80;99.90;;;;;;5105080;28;20510;-74
2022/03/24 05:53:16;;;;;;;92.70;53.10;;;2.80;99.90;;;;;;5095369;28;20510;-75
2022/03/24 05:55:42;;;;;;;75.78;48.33;;;2.80;99.90;;;;;;5093924;28;20085;-75
2022/03/24 05:58:09;;;;;;;79.55;49.10;;;2.80;99.90;;;;;;5095422;28;20059;-76
2022/03/24 06:00:39;;;;;;;71.88;46.60;;;2.80;99.90;;;;;;5095728;28;20541;-75
2022/03/24 06:03:06;;;;;;;73.35;45.63;;;2.80;99.90;;;;;;5114361;28;20050;-75
2022/03/24 06:05:32;;;;;;;79.32;47.55;;;2.90;99.90;;;;;;5096224;28;20108;-75
2022/03/24 06:08:01;;;;;;;81.10;47.35;;;2.80;99.90;;;;;;5113661;28;20040;-75
2022/03/24 06:10:27;;;;;;;89.50;53.92;;;2.90;99.90;;;;;;5113350;28;20110;-75
2022/03/24 06:12:53;;;;;;;84.13;48.78;;;2.90;99.90;;;;;;5095867;28;20058;-75
2022/03/24 06:15:19;;;;;;;76.03;48.17;;;2.90;99.90;;;;;;5113336;28;20051;-75
2022/03/24 06:17:45;;;;;;;89.43;53.50;;;3.00;99.90;;;;;;5095874;28;20510;-75
2022/03/24 06:20:12;;;;;;;96.07;54.17;;;3.00;99.90;;;;;;5096294;28;20040;-75
2022/03/24 06:22:49;;;;;;;93.82;54.92;;;3.10;99.90;;;;;;5094920;28;20050;-76
2022/03/24 06:25:16;;;;;;;82.70;52.00;;;3.10;99.90;;;;;;5091308;28;20475;-76
2022/03/24 06:27:42;;;;;;;95.55;56.10;;;3.20;99.90;;;;;;5105805;28;20039;-76
2022/03/24 06:30:08;;;;;;;88.78;54.30;;;3.20;99.90;;;;;;5112884;28;20063;-76
2022/03/24 06:32:34;;;;;;;103.05;58.28;;;3.30;99.90;;;;;;5113606;28;20128;-76
2022/03/24 06:35:02;;;;;;;101.47;58.00;;;3.40;99.90;;;;;;5095316;28;20036;-76
2022/03/24 06:37:28;;;;;;;107.53;60.85;;;3.40;99.90;;;;;;5078109;28;20047;-75
2022/03/24 06:39:54;;;;;;;103.90;60.92;;;3.40;99.90;;;;;;5112242;28;20039;-76
2022/03/24 06:42:21;;;;;;;98.32;57.70;;;3.50;99.90;;;;;;5089802;28;20089;-75
2022/03/24 06:44:47;;;;;;;105.68;60.13;;;3.60;99.90;;;;;;5094501;28;20048;-75
2022/03/24 06:47:13;;;;;;;103.22;60.05;;;3.60;99.90;;;;;;5113203;28;20070;-76
2022/03/24 06:49:39;;;;;;;93.20;56.00;;;3.70;99.90;;;;;;5112541;28;20126;-76
2022/03/24 06:52:06;;;;;;;99.70;59.35;;;3.60;99.90;;;;;;5095441;28;20035;-76
2022/03/24 06:54:32;;;;;;;109.38;60.60;;;3.80;99.90;;;;;;5095405;28;20052;-76
2022/03/24 06:56:58;;;;;;;110.20;64.25;;;3.90;99.90;;;;;;5097839;28;20051;-76
2022/03/24 06:59:24;;;;;;;104.85;63.10;;;4.00;99.90;;;;;;5099068;28;20044;-76
2022/03/24 07:01:50;;;;;;;108.75;63.95;;;4.10;99.90;;;;;;5097268;28;20046;-76
2022/03/24 07:04:16;;;;;;;103.88;62.13;;;4.20;99.90;;;;;;5116612;28;20575;-76
2022/03/24 07:06:42;;;;;;;105.35;62.72;;;4.30;99.90;;;;;;5116125;28;20032;-75
2022/03/24 07:09:08;;;;;;;102.50;63.10;;;4.40;99.90;;;;;;5089855;28;20101;-75
2022/03/24 07:11:34;;;;;;;106.53;65.40;;;4.50;99.90;;;;;;5112219;28;20040;-76
2022/03/24 07:14:00;;;;;;;121.32;67.97;;;4.60;99.90;;;;;;5078567;28;20532;-75
2022/03/24 07:16:26;;;;;;;119.68;68.78;;;4.80;99.90;;;;;;5096850;28;20052;-75
2022/03/24 07:18:52;;;;;;;122.28;69.93;;;4.90;99.90;;;;;;5113786;28;20104;-75
2022/03/24 07:21:19;;;;;;;122.95;72.03;;;5.00;99.90;;;;;;5088155;28;20056;-75
2022/03/24 07:23:45;;;;;;;127.45;72.05;;;5.30;99.90;;;;;;5098368;28;20118;-75
2022/03/24 07:26:11;;;;;;;123.90;72.45;;;5.40;99.90;;;;;;5098010;28;20152;-76
2022/03/24 07:28:37;;;;;;;115.68;68.18;;;5.60;99.90;;;;;;5098435;28;20375;-75
2022/03/24 07:31:16;;;;;;;121.00;75.13;;;5.80;99.90;;;;;;5098167;28;20035;-75
2022/03/24 07:33:43;;;;;;;119.90;71.40;;;5.90;99.90;;;;;;5116226;28;20173;-75
2022/03/24 07:36:09;;;;;;;124.63;72.07;;;6.10;99.90;;;;;;5101579;28;20040;-75
2022/03/24 07:38:35;;;;;;;110.85;69.32;;;6.20;99.90;;;;;;5098413;28;20058;-76
2022/03/24 07:41:02;;;;;;;110.88;69.90;;;6.40;99.90;;;;;;5097837;28;20063;-75
2022/03/24 07:43:28;;;;;;;112.80;69.88;;;6.50;99.90;;;;;;5098281;28;20506;-75
2022/03/24 07:45:54;;;;;;;108.00;67.93;;;6.70;99.90;;;;;;5107346;28;20036;-76
2022/03/24 07:48:27;;;;;;;110.93;70.25;;;6.80;99.90;;;;;;5083605;28;20043;-75
2022/03/24 07:50:56;;;;;;;106.32;67.72;;;7.00;99.90;;;;;;5097008;28;20081;-76
2022/03/24 07:53:28;;;;;;;106.07;69.20;;;7.10;99.90;;;;;;5114171;28;20503;-76
2022/03/24 07:55:56;;;;;;;102.43;69.45;;;7.30;99.90;;;;;;5093068;28;20617;-75
2022/03/24 07:58:22;;;;;;;110.38;69.13;;;7.50;99.90;;;;;;5095807;28;20043;-75
2022/03/24 08:00:49;;;;;;;111.35;67.53;;;7.60;99.90;;;;;;5113516;28;20040;-75
2022/03/24 08:03:17;;;;;;;98.30;65.97;;;7.80;99.90;;;;;;5093459;28;20483;-76
2022/03/24 08:05:43;;;;;;;91.68;63.17;;;8.00;99.90;;;;;;5105524;28;20039;-75
2022/03/24 08:08:10;;;;;;;99.97;65.40;;;8.20;99.90;;;;;;5096022;28;20547;-76
2022/03/24 08:10:41;;;;;;;92.97;64.28;;;8.30;99.90;;;;;;5112590;28;20051;-76
2022/03/24 08:13:08;;;;;;;94.88;64.45;;;8.40;99.90;;;;;;5096984;28;20100;-76
2022/03/24 08:15:36;;;;;;;97.78;59.40;;;8.60;99.90;;;;;;5086725;28;20051;-75
2022/03/24 08:18:05;;;;;;;86.43;61.28;;;8.70;99.90;;;;;;5114764;28;20039;-75
2022/03/24 08:20:32;;;;;;;90.10;58.67;;;8.90;99.90;;;;;;5114715;28;20051;-76
2022/03/24 08:22:58;;;;;;;89.72;61.40;;;9.00;99.90;;;;;;5094965;28;20059;-75
2022/03/24 08:25:24;;;;;;;86.05;58.63;;;9.20;99.90;;;;;;5095965;28;20039;-75
2022/03/24 08:27:50;;;;;;;90.53;60.85;;;9.30;99.90;;;;;;5093040;28;20066;-76
2022/03/24 08:30:16;;;;;;;87.95;61.88;;;9.40;99.90;;;;;;5111454;28;20051;-75
2022/03/24 08:32:42;;;;;;;82.43;56.33;;;9.50;99.90;;;;;;5114702;28;20036;-75
2022/03/24 08:35:08;;;;;;;84.18;59.13;;;9.70;99.90;;;;;;5113476;28;20119;-75
2022/03/24 08:37:34;;;;;;;89.18;61.38;;;9.80;99.90;;;;;;5096206;28;20058;-75
2022/03/24 08:40:00;;;;;;;85.40;61.80;;;9.90;99.90;;;;;;5095984;28;20126;-75
2022/03/24 08:42:26;;;;;;;80.50;58.45;;;10.00;99.90;;;;;;5078422;28;20055;-75
2022/03/24 08:44:52;;;;;;;85.50;60.75;;;10.10;99.90;;;;;;5090675;28;20040;-76
2022/03/24 08:47:17;;;;;;;88.80;59.65;;;10.20;99.90;;;;;;5096235;28;20452;-75
2022/03/24 08:49:43;;;;;;;75.70;52.17;;;10.40;99.90;;;;;;5050823;28;1179042;-76
2022/03/24 08:52:10;;;;;;;75.30;51.75;;;10.50;99.90;;;;;;5103359;28;20406;-75
2022/03/24 08:54:36;;;;;;;73.15;53.50;;;10.70;99.90;;;;;;5095215;28;20051;-75
2022/03/24 08:57:02;;;;;;;82.07;54.72;;;10.70;99.90;;;;;;5091462;28;20096;-75
2022/03/24 08:59:28;;;;;;;74.80;51.95;;;10.90;99.90;;;;;;5059830;28;20044;-76
2022/03/24 09:01:54;;;;;;;68.22;51.00;;;11.00;99.90;;;;;;5094550;28;20048;-75
2022/03/24 09:04:23;;;;;;;80.07;53.70;;;11.20;99.90;;;;;;5091763;28;20551;-75
2022/03/24 09:06:49;;;;;;;75.43;50.42;;;11.30;99.90;;;;;;5076959;28;20052;-75
2022/03/24 09:09:15;;;;;;;70.35;48.33;;;11.40;99.90;;;;;;5083907;28;20051;-75
2022/03/24 09:11:41;;;;;;;65.43;45.92;;;11.60;99.90;;;;;;5114138;28;20039;-75
2022/03/24 09:14:07;;;;;;;72.18;47.08;;;11.70;99.90;;;;;;5096936;28;20513;-75
2022/03/24 09:16:33;;;;;;;65.22;45.08;;;11.80;99.90;;;;;;5114974;28;20043;-75
2022/03/24 09:18:59;;;;;;;68.18;47.85;;;11.90;99.90;;;;;;5109778;28;20404;-75
2022/03/24 09:21:26;;;;;;;66.75;46.05;;;12.10;99.90;;;;;;5093423;28;20048;-75
2022/03/24 09:23:52;;;;;;;63.35;44.67;;;12.10;99.90;;;;;;5095607;28;20044;-75
2022/03/24 09:26:19;;;;;;;70.22;46.13;;;12.20;99.90;;;;;;5092343;28;20372;-75
2022/03/24 09:28:47;;;;;;;61.47;41.53;;;12.30;99.90;;;;;;5094453;28;20048;-75
2022/03/24 09:31:13;;;;;;;66.47;47.00;;;12.40;99.90;;;;;;5111102;28;20439;-75
2022/03/24 09:33:39;;;;;;;66.85;43.97;;;12.50;99.90;;;;;;5095509;28;20051;-75
2022/03/24 09:36:05;;;;;;;64.97;45.58;;;12.70;99.90;;;;;;5114628;28;20039;-75
2022/03/24 09:38:31;;;;;;;62.47;44.33;;;12.80;99.90;;;;;;5113977;28;20435;-75
2022/03/24 09:40:58;;;;;;;61.97;44.22;;;12.90;99.90;;;;;;5096166;28;20487;-75
2022/03/24 09:43:26;;;;;;;62.15;42.83;;;13.10;99.90;;;;;;5109868;28;20043;-75
2022/03/24 09:45:52;;;;;;;56.78;40.78;;;13.20;99.90;;;;;;5077858;28;20487;-75
2022/03/24 09:48:18;;;;;;;54.85;38.42;;;13.30;99.90;;;;;;5087714;28;20048;-75
2022/03/24 09:50:45;;;;;;;58.53;37.33;;;13.40;99.90;;;;;;5075781;28;20500;-75
2022/03/24 09:53:13;;;;;;;54.83;37.17;;;13.60;99.90;;;;;;5071320;28;20152;-74
2022/03/24 09:55:40;;;;;;;62.13;37.38;;;13.60;99.90;;;;;;5109827;28;20043;-76
2022/03/24 09:58:09;;;;;;;54.45;35.88;;;13.70;99.90;;;;;;5095445;28;20043;-75
2022/03/24 10:00:35;;;;;;;50.45;35.42;;;13.70;99.90;;;;;;5100217;28;20048;-75
2022/03/24 10:03:12;;;;;;;52.28;37.40;;;13.80;99.90;;;;;;5078665;28;20048;-75
2022/03/24 10:05:54;;;;;;;52.88;34.63;;;13.90;99.90;;;;;;5075890;28;20159;-75
2022/03/24 10:08:20;;;;;;;52.85;36.30;;;14.10;99.90;;;;;;5083040;28;20040;-75
2022/03/24 10:10:46;;;;;;;54.70;36.60;;;14.20;99.90;;;;;;5109791;28;20042;-75
2022/03/24 10:13:12;;;;;;;53.10;37.67;;;14.30;99.90;;;;;;5092408;28;20446;-75
2022/03/24 10:15:41;;;;;;;55.13;37.75;;;14.40;99.90;;;;;;5113011;28;20403;-75
2022/03/24 10:18:16;;;;;;;57.80;38.17;;;14.50;99.90;;;;;;5114028;28;20179;-75
2022/03/24 10:20:42;;;;;;;;;;;14.60;99.90;;;;;;5075313;28;20059;-75
2022/03/24 10:23:08;;;;;;;51.65;37.88;;;14.70;99.90;;;;;;5093411;28;19916;-75
2022/03/24 10:25:37;;;;;;;53.35;38.33;;;14.80;99.90;;;;;;5112620;28;20040;-75
2022/03/24 10:28:17;;;;;;;48.08;33.63;;;15.00;99.90;;;;;;5112934;28;20414;-75
2022/03/24 10:30:53;;;;;;;50.88;32.80;;;15.10;99.90;;;;;;5113548;28;20122;-75
2022/03/24 10:33:28;;;;;;;42.58;30.67;;;15.20;99.30;;;;;;5095646;28;20047;-75
2022/03/24 10:36:17;;;;;;;49.28;30.40;;;15.20;98.30;;;;;;5092592;28;20136;-75
2022/03/24 10:38:46;;;;;;;50.05;31.83;;;15.20;97.00;;;;;;5093282;28;20487;-75
2022/03/24 10:41:25;;;;;;;45.88;31.35;;;15.20;96.80;;;;;;5094467;28;20042;-74
2022/03/24 10:43:53;;;;;;;45.42;31.27;;;15.30;96.20;;;;;;5074442;28;20105;-75
2022/03/24 10:46:23;;;;;;;45.88;31.10;;;15.50;97.30;;;;;;5077066;28;20054;-75
2022/03/24 10:48:53;;;;;;;45.80;30.40;;;15.60;96.40;;;;;;5094638;28;20047;-75
2022/03/24 10:51:25;;;;;;;49.13;31.63;;;15.60;95.40;;;;;;5113392;28;20048;-75
2022/03/24 10:53:51;;;;;;;50.15;31.33;;;15.70;94.60;;;;;;5100587;28;20146;-75
2022/03/24 10:56:29;;;;;;;47.70;32.25;;;15.70;94.90;;;;;;5108599;28;20044;-74
2022/03/24 10:58:59;;;;;;;44.38;31.88;;;15.70;95.50;;;;;;5095358;28;20043;-75
2022/03/24 11:01:28;;;;;;;45.53;30.45;;;15.80;95.40;;;;;;5113487;28;20044;-75
2022/03/24 11:03:55;;;;;;;44.67;29.02;;;16.00;95.90;;;;;;5112701;28;20039;-74
2022/03/24 11:06:27;;;;;;;48.92;29.50;;;16.10;92.60;;;;;;5078210;28;20055;-74
2022/03/24 11:08:59;;;;;;;44.65;29.88;;;16.10;90.70;;;;;;5078554;28;20051;-75
2022/03/24 11:11:26;;;;;;;46.50;30.92;;;16.10;87.10;;;;;;5112318;28;20100;-75
2022/03/24 11:13:52;;;;;;;43.53;28.95;;;16.10;90.80;;;;;;5095091;28;20158;-74
2022/03/24 11:16:22;;;;;;;46.05;31.05;;;16.30;90.80;;;;;;5095093;28;20067;-75
2022/03/24 11:18:50;;;;;;;42.28;28.40;;;16.30;90.30;;;;;;5112562;28;20112;-76
2022/03/24 11:21:50;;;;;;;48.95;30.63;;;16.40;89.20;;;;;;5113214;28;20079;-76
2022/03/24 11:24:16;;;;;;;44.03;28.65;;;16.40;87.90;;;;;;5112475;28;20052;-75
2022/03/24 11:26:43;;;;;;;41.03;25.48;;;16.40;84.70;;;;;;5094659;28;20368;-76
2022/03/24 11:29:10;;;;;;;42.22;28.55;;;16.40;83.30;;;;;;5113394;28;20039;-76
2022/03/24 11:31:36;;;;;;;40.20;24.33;;;16.40;81.40;;;;;;5094087;28;20098;-76
2022/03/24 11:34:04;;;;;;;40.25;26.13;;;16.50;79.10;;;;;;5095244;28;20499;-76
2022/03/24 11:36:31;;;;;;;40.42;26.20;;;16.50;81.50;;;;;;5112808;28;20044;-77
2022/03/24 11:39:04;;;;;;;41.33;25.98;;;16.60;82.50;;;;;;5112524;28;20055;-76
2022/03/24 11:41:52;;;;;;;43.10;27.73;;;16.60;80.10;;;;;;5113082;28;20067;-76
2022/03/24 11:44:36;;;;;;;44.65;28.05;;;16.70;74.30;;;;;;5082753;28;20130;-76
2022/03/24 11:47:15;;;;;;;38.05;26.33;;;16.60;75.10;;;;;;5097713;28;20450;-76
2022/03/24 11:49:41;;;;;;;38.28;25.70;;;16.60;77.60;;;;;;5081592;28;20051;-75
2022/03/24 11:52:07;;;;;;;37.63;27.00;;;16.60;74.10;;;;;;5095798;28;20100;-75
2022/03/24 11:54:38;;;;;;;40.17;25.50;;;16.60;74.50;;;;;;5111697;28;20455;-76
2022/03/24 11:57:31;;;;;;;39.38;26.08;;;16.60;72.10;;;;;;5083234;28;20054;-76
2022/03/24 12:00:15;;;;;;;42.80;29.73;;;16.70;74.40;;;;;;5103279;28;20031;-75
2022/03/24 12:02:58;;;;;;;42.35;29.35;;;16.70;72.30;;;;;;5116191;28;20043;-75
2022/03/24 12:05:51;;;;;;;52.03;30.80;;;16.70;73.60;;;;;;5109377;28;20127;-75
2022/03/24 12:08:28;;;;;;;44.88;27.77;;;16.80;75.30;;;;;;5078626;28;20126;-75
2022/03/24 12:10:55;;;;;;;48.22;32.88;;;16.90;74.10;;;;;;5116267;28;20050;-75
2022/03/24 12:13:22;;;;;;;42.00;30.73;;;16.80;74.50;;;;;;5096350;28;20068;-75
2022/03/24 12:16:10;;;;;;;41.28;31.05;;;16.80;74.60;;;;;;5078275;28;20048;-75
2022/03/24 12:18:41;;;;;;;50.53;35.30;;;16.90;74.10;;;;;;5077649;28;20390;-75
2022/03/24 12:21:07;;;;;;;56.53;36.78;;;16.80;74.60;;;;;;5099362;28;20047;-75
2022/03/24 12:24:12;;;;;;;54.90;36.00;;;16.80;74.80;;;;;;5116239;28;20083;-75
2022/03/24 12:26:47;;;;;;;55.20;34.20;;;16.90;75.30;;;;;;5089215;28;20101;-75
2022/03/24 12:29:23;;;;;;;50.70;37.40;;;16.90;78.20;;;;;;5095090;28;20093;-75
2022/03/24 12:32:05;;;;;;;58.65;39.65;;;16.90;79.20;;;;;;5104687;28;20074;-75
2022/03/24 12:34:44;;;;;;;50.80;34.60;;;17.00;82.50;;;;;;5095205;28;20131;-75
2022/03/24 12:37:32;;;;;;;48.35;35.90;;;17.10;80.20;;;;;;5106731;28;20538;-75
2022/03/24 12:40:10;;;;;;;47.08;34.92;;;17.20;81.30;;;;;;5115838;28;20054;-75
2022/03/24 12:42:46;;;;;;;46.95;35.85;;;17.10;81.80;;;;;;5079017;28;20060;-75
2022/03/24 12:45:30;;;;;;;52.17;37.67;;;17.20;79.80;;;;;;5075233;28;20032;-75